Time;durP1;ratioP1;P1;durP2;ratioP2;P2;SDS_P1;SDS_P2;PMS_P1;PMS_P2;Temp;Humidity;BMP_temperature;BMP_pressure;BME280_temperature;BME280_humidity;BME280_pressure;Samples;Min_cycle;Max_cycle;Signal;HPM_P1;HPM_P2
2023/06/06 00:02:12;;;;;;;;;;;;;;;11.60;67.72;101879.20;106836;1260;59882;-84
2023/06/06 00:04:45;;;;;;;;;;;;;;;11.57;67.91;101878.53;106696;1260;124385;-84
2023/06/06 00:07:12;;;;;;;;;;;;;;;11.54;67.89;101875.25;106955;1264;59651;-82
2023/06/06 00:09:45;;;;;;;;;;;;;;;11.51;68.06;101871.98;107593;1261;125213;-82
2023/06/06 00:12:14;;;;;;;;;;;;;;;11.47;68.03;101871.33;108655;1260;68154;-83
2023/06/06 00:14:41;;;;;;;;;;;;;;;11.44;68.13;101871.55;108378;1260;72488;-82
2023/06/06 00:17:11;;;;;;;;;;;;;;;11.41;68.15;101871.58;106861;1263;124762;-83
2023/06/06 00:19:40;;;;;;;;;;;;;;;11.36;68.18;101870.70;106722;1261;61257;-83
2023/06/06 00:22:07;;;;;;;;;;;;;;;11.30;68.30;101871.17;106761;1260;124425;-83
2023/06/06 00:24:33;;;;;;;;;;;;;;;11.26;68.33;101868.70;106731;1260;61394;-83
2023/06/06 00:26:59;;;;;;;;;;;;;;;11.21;68.41;101866.92;106730;1265;61328;-83
2023/06/06 00:29:26;;;;;;;;;;;;;;;11.18;68.45;101869.77;106681;1261;124311;-83
2023/06/06 00:31:53;;;;;;;;;;;;;;;11.14;68.58;101870.84;106894;1263;61040;-83
2023/06/06 00:34:19;;;;;;;;;;;;;;;11.11;68.56;101872.66;106857;1260;124469;-83
2023/06/06 00:36:46;;;;;;;;;;;;;;;11.07;68.67;101870.45;106976;1260;62213;-83
2023/06/06 00:39:13;;;;;;;;;;;;;;;11.03;68.69;101866.04;107102;1261;61118;-83
2023/06/06 00:41:40;;;;;;;;;;;;;;;10.99;68.93;101869.88;106825;1260;124332;-84
2023/06/06 00:44:08;;;;;;;;;;;;;;;10.95;68.96;101872.92;106885;1261;59988;-84
2023/06/06 00:46:34;;;;;;;;;;;;;;;10.91;69.06;101871.16;106602;1260;125238;-84
2023/06/06 00:49:00;;;;;;;;;;;;;;;10.87;69.09;101869.59;106640;1260;61302;-84
2023/06/06 00:51:26;;;;;;;;;;;;;;;10.84;69.15;101870.16;106683;1260;60055;-84
2023/06/06 00:53:55;;;;;;;;;;;;;;;10.80;69.23;101872.45;106677;1261;124802;-83
2023/06/06 00:56:22;;;;;;;;;;;;;;;10.77;69.49;101868.80;106927;1260;59984;-84
2023/06/06 00:58:51;;;;;;;;;;;;;;;10.74;69.56;101869.91;107284;1260;124174;-84
2023/06/06 01:01:21;;;;;;;;;;;;;;;10.71;69.79;101871.20;106737;1260;67091;-84
2023/06/06 01:03:47;;;;;;;;;;;;;;;10.67;69.80;101872.44;106620;1260;124853;-84
2023/06/06 01:06:22;;;;;;;;;;;;;;;10.65;69.91;101871.48;106752;1260;61242;-85
2023/06/06 01:08:48;;;;;;;;;;;;;;;10.63;70.08;101872.25;106779;1261;61267;-84
2023/06/06 01:11:42;;;;;;;;;;;;;;;10.61;70.17;101875.49;106766;1261;125105;-83
2023/06/06 01:14:29;;;;;;;;;;;;;;;10.58;70.37;101873.45;106742;1260;65840;-84
2023/06/06 01:17:07;;;;;;;;;;;;;;;10.57;70.53;101870.98;106693;1260;125714;-84
2023/06/06 01:19:37;;;;;;;;;;;;;;;10.57;70.70;101870.63;107023;1261;61839;-83
2023/06/06 01:22:04;;;;;;;;;;;;;;;10.57;70.85;101867.11;107006;1260;124949;-83
2023/06/06 01:24:36;;;;;;;;;;;;;;;10.58;70.82;101864.86;106883;1260;74801;-84
2023/06/06 01:27:08;;;;;;;;;;;;;;;10.60;70.96;101869.50;106867;1260;65730;-84
2023/06/06 01:29:35;;;;;;;;;;;;;;;10.62;71.10;101868.36;107154;1260;124793;-83
2023/06/06 01:32:22;;;;;;;;;;;;;;;10.64;71.14;101870.89;107323;1260;59528;-84
2023/06/06 01:35:14;;;;;;;;;;;;;;;10.66;71.12;101870.80;106950;1260;124888;-84
2023/06/06 01:37:48;;;;;;;;;;;;;;;10.67;71.19;101869.27;107091;1263;73370;-86
2023/06/06 01:40:29;;;;;;;;;;;;;;;10.67;71.08;101869.83;107046;1260;125628;-86
2023/06/06 01:42:56;;;;;;;;;;;;;;;10.67;71.07;101870.15;106862;1260;71728;-85
2023/06/06 01:45:35;;;;;;;;;;;;;;;10.66;71.10;101868.38;107010;1260;61330;-86
2023/06/06 01:48:17;;;;;;;;;;;;;;;10.67;71.14;101865.60;106886;1260;61228;-86
2023/06/06 01:50:43;;;;;;;;;;;;;;;10.69;71.20;101869.89;106823;1262;73755;-85
2023/06/06 01:53:12;;;;;;;;;;;;;;;10.70;71.19;101868.02;106882;1261;125020;-85
2023/06/06 01:55:39;;;;;;;;;;;;;;;10.71;71.14;101866.83;106953;1260;72309;-85
2023/06/06 01:58:05;;;;;;;;;;;;;;;10.72;71.14;101864.41;106809;1260;125518;-86
2023/06/06 02:00:31;;;;;;;;;;;;;;;10.73;71.14;101866.55;106629;1260;59877;-86
2023/06/06 02:03:01;;;;;;;;;;;;;;;10.73;71.08;101859.87;106472;1260;60675;-85
2023/06/06 02:05:27;;;;;;;;;;;;;;;10.73;71.03;101862.84;106611;1260;124942;-84
2023/06/06 02:08:01;;;;;;;;;;;;;;;10.73;71.05;101859.52;106814;1260;61291;-86
2023/06/06 02:10:34;;;;;;;;;;;;;;;10.73;71.07;101860.57;106671;1260;125156;-86
2023/06/06 02:13:00;;;;;;;;;;;;;;;10.73;71.08;101853.73;106814;1263;62127;-86
2023/06/06 02:15:35;;;;;;;;;;;;;;;10.74;71.13;101854.30;106819;1261;61325;-86
2023/06/06 02:18:07;;;;;;;;;;;;;;;10.75;71.15;101852.77;106990;1260;65852;-86
2023/06/06 02:20:35;;;;;;;;;;;;;;;10.79;71.15;101853.95;106518;1260;72638;-86
2023/06/06 02:23:02;;;;;;;;;;;;;;;10.81;71.10;101850.03;106582;1260;125004;-86
2023/06/06 02:25:28;;;;;;;;;;;;;;;10.84;71.10;101848.22;106599;1260;61359;-86
2023/06/06 02:28:03;;;;;;;;;;;;;;;10.87;71.01;101846.77;106574;1260;125928;-86
2023/06/06 02:30:37;;;;;;;;;;;;;;;10.90;70.97;101840.20;106652;1264;65603;-87
2023/06/06 02:33:16;;;;;;;;;;;;;;;10.93;70.97;101844.52;106813;1260;72981;-86
2023/06/06 02:35:42;;;;;;;;;;;;;;;10.96;70.91;101841.33;106679;1260;125020;-85
2023/06/06 02:38:09;;;;;;;;;;;;;;;10.99;70.82;101840.04;106859;1260;61200;-85
2023/06/06 02:40:36;;;;;;;;;;;;;;;11.02;70.78;101840.86;106709;1260;125281;-84
2023/06/06 02:43:08;;;;;;;;;;;;;;;11.06;70.77;101839.83;106787;1262;66036;-87
2023/06/06 02:45:37;;;;;;;;;;;;;;;11.12;70.67;101836.86;106894;1260;72685;-87
2023/06/06 02:48:03;;;;;;;;;;;;;;;11.18;70.55;101835.00;106836;1260;61208;-87
2023/06/06 02:50:31;;;;;;;;;;;;;;;11.23;70.45;101838.70;107067;1260;61263;-86
2023/06/06 02:53:02;;;;;;;;;;;;;;;11.30;70.42;101841.10;106887;1261;124900;-87
2023/06/06 02:55:44;;;;;;;;;;;;;;;11.34;70.32;101841.97;106981;1260;65841;-87
2023/06/06 02:58:29;;;;;;;;;;;;;;;11.39;70.24;101836.38;106690;1261;125385;-86
2023/06/06 03:01:09;;;;;;;;;;;;;;;11.46;70.15;101835.20;106862;1260;60574;-85
2023/06/06 03:03:35;;;;;;;;;;;;;;;11.54;70.14;101832.88;106748;1265;60406;-86
2023/06/06 03:06:03;;;;;;;;;;;;;;;11.64;70.11;101839.08;106878;1260;124233;-87
2023/06/06 03:08:29;;;;;;;;;;;;;;;11.74;70.07;101838.41;106991;1260;67129;-87
2023/06/06 03:10:56;;;;;;;;;;;;;;;11.82;69.85;101834.31;106776;1260;124511;-86
2023/06/06 03:13:24;;;;;;;;;;;;;;;11.90;69.81;101834.45;106820;1265;62071;-84
2023/06/06 03:15:50;;;;;;;;;;;;;;;11.98;69.61;101836.34;106859;1260;124876;-85
2023/06/06 03:18:23;;;;;;;;;;;;;;;12.09;69.67;101839.18;106897;1260;61144;-85
2023/06/06 03:20:57;;;;;;;;;;;;;;;12.23;69.65;101835.83;107049;1260;67348;-84
2023/06/06 03:23:23;;;;;;;;;;;;;;;12.44;69.77;101831.27;107557;1260;124534;-84
2023/06/06 03:25:51;;;;;;;;;;;;;;;13.16;70.98;101829.96;107072;1260;59820;-85
2023/06/06 03:28:18;;;;;;;;;;;;;;;14.36;71.04;101824.30;106876;1260;124873;-85
2023/06/06 03:30:47;;;;;;;;;;;;;;;15.75;70.08;101821.61;106780;1260;74483;-85
2023/06/06 03:33:15;;;;;;;;;;;;;;;16.25;66.79;101815.89;106750;1260;65809;-86
2023/06/06 03:35:43;;;;;;;;;;;;;;;16.01;65.18;101818.65;106522;1264;124782;-86
2023/06/06 03:38:11;;;;;;;;;;;;;;;15.76;64.59;101822.89;106710;1260;61366;-85
2023/06/06 03:40:39;;;;;;;;;;;;;;;15.61;64.20;101821.31;106521;1261;124107;-85
2023/06/06 03:43:19;;;;;;;;;;;;;;;15.51;63.91;101822.34;106543;1260;74789;-85
2023/06/06 03:45:51;;;;;;;;;;;;;;;15.62;63.93;101823.09;106587;1260;124859;-85
2023/06/06 03:48:17;;;;;;;;;;;;;;;16.15;64.43;101822.79;107035;1261;72549;-85
2023/06/06 03:50:45;;;;;;;;;;;;;;;17.69;65.59;101819.20;107024;1264;60014;-85
2023/06/06 03:53:11;;;;;;;;;;;;;;;19.80;64.56;101819.78;107089;1260;124575;-84
2023/06/06 03:55:39;;;;;;;;;;;;;;;21.76;62.27;101816.08;107103;1260;73365;-86
2023/06/06 03:58:07;;;;;;;;;;;;;;;23.56;60.08;101816.13;106869;1260;124232;-86
2023/06/06 04:00:39;;;;;;;;;;;;;;;25.18;57.52;101814.43;106677;1261;71438;-85
2023/06/06 04:03:08;;;;;;;;;;;;;;;26.68;55.03;101817.50;106953;1261;61167;-86
2023/06/06 04:05:43;;;;;;;;;;;;;;;28.02;52.61;101814.34;106764;1261;124551;-86
2023/06/06 04:08:10;;;;;;;;;;;;;;;29.25;50.11;101812.08;106995;1260;74507;-87
2023/06/06 04:10:37;;;;;;;;;;;;;;;30.23;48.13;101811.63;107000;1260;124145;-82
2023/06/06 04:13:03;;;;;;;;;;;;;;;31.16;46.18;101809.53;107112;1266;59675;-83
2023/06/06 04:15:29;;;;;;;;;;;;;;;31.99;44.32;101809.16;106962;1262;61430;-87
2023/06/06 04:17:57;;;;;;;;;;;;;;;32.78;42.69;101806.91;107128;1261;124295;-85
2023/06/06 04:20:26;;;;;;;;;;;;;;;33.50;41.08;101805.88;107209;1261;64818;-86
2023/06/06 04:22:53;;;;;;;;;;;;;;;34.20;39.78;101810.54;106777;1265;124917;-85
2023/06/06 04:25:19;;;;;;;;;;;;;;;34.87;38.37;101802.74;107402;1260;64157;-83
2023/06/06 04:27:45;;;;;;;;;;;;;;;35.47;37.11;101803.60;107136;1260;125089;-80
2023/06/06 04:30:22;;;;;;;;;;;;;;;36.05;35.81;101804.67;107032;1260;59694;-83
2023/06/06 04:32:49;;;;;;;;;;;;;;;36.70;34.56;101805.46;107093;1260;66560;-82
2023/06/06 04:35:16;;;;;;;;;;;;;;;37.32;33.53;101806.76;107197;1264;124763;-81
2023/06/06 04:37:43;;;;;;;;;;;;;;;37.85;32.51;101809.04;108461;1260;62852;-81
2023/06/06 04:40:10;;;;;;;;;;;;;;;38.26;31.58;101808.91;107217;1261;124909;-78
2023/06/06 04:42:36;;;;;;;;;;;;;;;38.72;30.61;101805.25;107179;1260;61256;-78
2023/06/06 04:45:06;;;;;;;;;;;;;;;39.11;29.79;101806.95;107088;1266;61444;-82
2023/06/06 04:47:33;;;;;;;;;;;;;;;39.65;29.08;101807.11;107011;1265;124780;-83
2023/06/06 04:50:02;;;;;;;;;;;;;;;40.20;28.27;101802.20;107164;1260;62858;-86
2023/06/06 04:52:28;;;;;;;;;;;;;;;40.57;27.46;101804.40;106900;1260;124775;-85
2023/06/06 04:55:04;;;;;;;;;;;;;;;40.97;27.07;101798.05;107158;1260;61165;-85
2023/06/06 04:57:32;;;;;;;;;;;;;;;41.45;26.10;101799.09;107073;1260;66162;-85
2023/06/06 05:00:01;;;;;;;;;;;;;;;41.68;25.45;101799.77;106766;1260;124268;-85
2023/06/06 05:02:29;;;;;;;;;;;;;;;41.85;24.75;101798.02;106842;1263;62630;-86
2023/06/06 05:05:03;;;;;;;;;;;;;;;42.06;24.35;101795.38;106721;1260;124185;-86
2023/06/06 05:10:52;;;;;;;;;;;;;;;42.83;23.49;101794.45;106787;1262;124179;-85
2023/06/06 05:13:25;;;;;;;;;;;;;;;43.21;22.85;101790.23;107047;1262;60478;-88
2023/06/06 05:15:54;;;;;;;;;;;;;;;43.20;22.35;101787.73;107077;1260;124850;-91
2023/06/06 05:18:20;;;;;;;;;;;;;;;43.23;21.98;101789.70;107205;1264;61234;-90
2023/06/06 05:21:02;;;;;;;;;;;;;;;43.38;21.68;101789.14;107070;1260;61217;-92
2023/06/06 05:23:36;;;;;;;;;;;;;;;43.74;21.26;101789.48;106635;1260;125133;-87
2023/06/06 05:32:55;;;;;;;;;;;;;;;43.80;20.05;101783.36;106972;1260;60009;-89
2023/06/06 05:35:55;;;;;;;;;;;;;;;43.72;19.98;101781.20;106812;1261;124022;-89
2023/06/06 05:41:50;;;;;;;;;;;;;;;40.92;19.31;101778.50;107382;1260;124285;-88
2023/06/06 05:44:27;;;;;;;;;;;;;;;38.27;20.29;101778.27;107081;1260;63981;-88
2023/06/06 05:47:05;;;;;;;;;;;;;;;36.06;21.17;101783.83;106718;1260;124223;-86
2023/06/06 05:49:38;;;;;;;;;;;;;;;34.13;22.06;101781.74;106765;1262;60350;-87
2023/06/06 05:52:21;;;;;;;;;;;;;;;32.50;23.17;101784.11;106604;1260;124352;-89
2023/06/06 05:55:10;;;;;;;;;;;;;;;31.10;24.11;101786.03;106708;1260;61402;-88
2023/06/06 05:57:49;;;;;;;;;;;;;;;29.86;24.92;101785.20;106879;1260;62797;-89
2023/06/06 06:00:48;;;;;;;;;;;;;;;;;;;;;
2023/06/06 06:03:24;;;;;;;;;;;;;;;27.74;26.69;101785.63;106730;1260;61233;-88
2023/06/06 06:06:02;;;;;;;;;;;;;;;27.03;27.32;101790.13;106775;1261;124176;-87
2023/06/06 06:11:51;;;;;;;;;;;;;;;25.76;29.19;101785.44;106465;1260;124202;-88
2023/06/06 06:14:17;;;;;;;;;;;;;;;25.40;29.67;101790.17;106565;1265;61685;-88
2023/06/06 06:16:58;;;;;;;;;;;;;;;25.07;30.09;101786.46;106777;1260;124179;-88
2023/06/06 06:19:25;;;;;;;;;;;;;;;24.70;30.92;101788.38;106966;1260;73092;-88
2023/06/06 06:22:11;;;;;;;;;;;;;;;24.43;31.53;101787.55;106919;1260;66355;-88
2023/06/06 06:28:01;;;;;;;;;;;;;;;23.90;32.10;101794.27;106882;1260;61315;-88
2023/06/06 06:30:46;;;;;;;;;;;;;;;23.71;32.64;101793.58;106757;1260;61287;-88
2023/06/06 06:33:25;;;;;;;;;;;;;;;23.56;33.08;101796.65;106721;1262;75189;-88
2023/06/06 06:35:57;;;;;;;;;;;;;;;23.40;33.24;101795.92;106663;1261;124294;-88
2023/06/06 06:38:30;;;;;;;;;;;;;;;23.27;33.69;101799.47;106623;1262;72610;-88
2023/06/06 06:41:09;;;;;;;;;;;;;;;23.14;33.92;101796.39;106476;1260;124592;-88
2023/06/06 06:43:48;;;;;;;;;;;;;;;23.03;34.41;101797.02;106719;1261;61539;-88
2023/06/06 06:46:15;;;;;;;;;;;;;;;22.95;34.74;101798.70;106828;1261;124370;-88
2023/06/06 06:48:45;;;;;;;;;;;;;;;22.87;34.99;101796.45;106886;1264;60596;-88
2023/06/06 06:51:14;;;;;;;;;;;;;;;22.81;35.34;101799.19;106951;1260;72666;-89
2023/06/06 06:54:09;;;;;;;;;;;;;;;22.80;35.65;101801.17;106867;1260;124260;-89
2023/06/06 06:56:36;;;;;;;;;;;;;;;22.79;35.92;101799.94;107113;1260;61488;-89
2023/06/06 06:59:22;;;;;;;;;;;;;;;22.76;36.08;101801.56;106937;1266;124778;-89
2023/06/06 07:02:05;;;;;;;;;;;;;;;22.75;36.20;101795.31;106659;1260;64621;-88
2023/06/06 07:04:39;;;;;;;;;;;;;;;22.73;35.78;101798.90;106573;1260;124260;-89
2023/06/06 07:07:13;;;;;;;;;;;;;;;22.74;35.95;101796.75;106666;1261;61243;-89
2023/06/06 07:09:41;;;;;;;;;;;;;;;22.77;35.85;101800.66;106620;1261;61154;-89
2023/06/06 07:12:07;;;;;;;;;;;;;;;22.78;35.89;101796.90;106549;1260;124576;-89
2023/06/06 07:14:39;;;;;;;;;;;;;;;22.78;36.00;101793.14;106601;1261;60302;-89
2023/06/06 07:17:09;;;;;;;;;;;;;;;22.80;36.04;101798.30;106933;1260;124730;-89
2023/06/06 07:19:36;;;;;;;;;;;;;;;22.84;36.04;101797.91;106898;1261;61151;-89
2023/06/06 07:22:04;;;;;;;;;;;;;;;22.87;36.04;101800.20;106825;1260;124442;-88
2023/06/06 07:24:58;;;;;;;;;;;;;;;22.90;36.04;101797.69;106750;1260;73875;-89
2023/06/06 07:27:25;;;;;;;;;;;;;;;22.90;36.05;101795.52;107162;1260;65676;-88
2023/06/06 07:30:14;;;;;;;;;;;;;;;22.92;36.16;101795.15;106788;1260;124478;-89
2023/06/06 07:32:43;;;;;;;;;;;;;;;22.94;36.17;101798.54;106700;1260;61266;-89
2023/06/06 07:35:32;;;;;;;;;;;;;;;22.96;36.15;101794.75;106674;1264;124457;-89
2023/06/06 07:38:06;;;;;;;;;;;;;;;22.99;36.17;101794.90;106770;1261;72899;-89
2023/06/06 07:40:38;;;;;;;;;;;;;;;23.04;36.13;101794.89;106687;1261;124793;-89
2023/06/06 07:43:17;;;;;;;;;;;;;;;23.07;35.96;101794.66;106807;1261;71654;-89
2023/06/06 07:45:57;;;;;;;;;;;;;;;23.10;35.94;101792.67;106824;1261;60123;-89
2023/06/06 07:48:39;;;;;;;;;;;;;;;23.14;36.00;101792.09;106765;1261;124072;-89
2023/06/06 07:51:07;;;;;;;;;;;;;;;23.21;36.05;101790.41;107050;1261;72882;-89
2023/06/06 07:53:34;;;;;;;;;;;;;;;23.26;35.79;101791.59;106613;1260;124267;-89
2023/06/06 07:56:06;;;;;;;;;;;;;;;23.31;35.60;101790.11;106968;1260;72722;-89
2023/06/06 07:59:06;;;;;;;;;;;;;;;23.37;35.71;101786.29;106848;1260;59906;-89
2023/06/06 08:01:42;;;;;;;;;;;;;;;23.42;35.39;101782.13;106808;1260;60450;-89
2023/06/06 08:04:16;;;;;;;;;;;;;;;23.44;35.22;101781.91;106803;1260;74494;-89
2023/06/06 08:06:49;;;;;;;;;;;;;;;23.49;35.19;101777.37;107200;1262;65812;-90
2023/06/06 08:09:24;;;;;;;;;;;;;;;23.53;35.06;101779.99;107034;1260;72700;-89
2023/06/06 08:11:53;;;;;;;;;;;;;;;23.54;35.16;101782.13;107126;1260;61364;-89
2023/06/06 08:14:19;;;;;;;;;;;;;;;23.59;35.39;101781.36;107079;1261;60854;-87
2023/06/06 08:16:45;;;;;;;;;;;;;;;23.62;35.15;101775.05;106968;1261;61036;-87
2023/06/06 08:19:14;;;;;;;;;;;;;;;23.64;35.20;101775.02;107096;1262;60113;-87
2023/06/06 08:21:43;;;;;;;;;;;;;;;23.69;35.30;101775.52;107002;1261;71698;-88
2023/06/06 08:24:16;;;;;;;;;;;;;;;23.75;35.31;101773.28;106666;1260;124730;-89
2023/06/06 08:26:44;;;;;;;;;;;;;;;23.77;34.95;101773.23;106747;1262;59632;-88
2023/06/06 08:29:29;;;;;;;;;;;;;;;23.78;35.01;101768.58;106901;1261;124364;-88
2023/06/06 08:32:06;;;;;;;;;;;;;;;23.84;35.25;101771.39;106894;1261;67396;-88
2023/06/06 08:34:32;;;;;;;;;;;;;;;23.91;35.08;101765.39;106812;1261;124367;-88
2023/06/06 08:37:11;;;;;;;;;;;;;;;23.97;34.84;101764.04;106823;1262;61347;-89
2023/06/06 08:39:44;;;;;;;;;;;;;;;24.02;35.03;101762.35;106644;1261;61112;-88
2023/06/06 08:42:21;;;;;;;;;;;;;;;24.06;35.23;101761.75;106612;1261;124172;-88
2023/06/06 08:44:55;;;;;;;;;;;;;;;24.12;35.22;101763.09;106843;1263;66337;-88
2023/06/06 08:47:28;;;;;;;;;;;;;;;24.18;34.95;101753.69;106722;1262;124057;-88
2023/06/06 08:50:01;;;;;;;;;;;;;;;24.20;34.61;101755.27;106776;1260;61293;-89
2023/06/06 08:52:29;;;;;;;;;;;;;;;24.23;34.77;101755.91;106824;1260;124271;-88
2023/06/06 08:54:56;;;;;;;;;;;;;;;24.27;34.53;101753.89;106972;1260;75137;-89
2023/06/06 08:57:29;;;;;;;;;;;;;;;24.26;34.03;101750.14;107503;1260;65711;-89
2023/06/06 08:59:57;;;;;;;;;;;;;;;24.25;33.85;101742.27;106353;1264;257178;-90
2023/06/06 09:02:28;;;;;;;;;;;;;;;24.25;33.73;101746.20;106781;1260;60427;-89
2023/06/06 09:04:56;;;;;;;;;;;;;;;24.27;33.79;101746.90;106691;1262;124386;-89
2023/06/06 09:07:40;;;;;;;;;;;;;;;24.31;33.76;101746.84;106895;1261;75445;-89
2023/06/06 09:10:08;;;;;;;;;;;;;;;24.36;33.84;101743.71;106816;1260;66921;-89
2023/06/06 09:12:41;;;;;;;;;;;;;;;24.40;33.86;101743.30;106655;1266;125519;-89
2023/06/06 09:15:10;;;;;;;;;;;;;;;24.47;33.70;101742.45;106702;1261;60908;-89
2023/06/06 09:17:59;;;;;;;;;;;;;;;24.49;33.45;101736.85;106774;1262;124351;-89
2023/06/06 09:20:25;;;;;;;;;;;;;;;24.52;33.42;101742.38;106743;1262;75900;-89
2023/06/06 09:22:57;;;;;;;;;;;;;;;24.58;33.29;101741.94;106706;1260;124271;-84
2023/06/06 09:25:24;;;;;;;;;;;;;;;24.64;33.21;101738.77;107175;1262;71271;-84
2023/06/06 09:28:00;;;;;;;;;;;;;;;24.65;32.96;101737.14;107111;1262;60680;-83
2023/06/06 09:30:47;;;;;;;;;;;;;;;24.65;33.01;101740.92;106947;1260;125662;-89
2023/06/06 09:33:23;;;;;;;;;;;;;;;24.70;32.69;101736.86;106708;1265;73344;-88
2023/06/06 09:36:05;;;;;;;;;;;;;;;24.72;32.42;101736.48;106701;1262;124057;-88
2023/06/06 09:38:33;;;;;;;;;;;;;;;24.75;32.65;101736.07;106889;1264;72677;-88
2023/06/06 09:41:00;;;;;;;;;;;;;;;24.86;33.08;101741.77;106829;1265;124471;-88
2023/06/06 09:43:27;;;;;;;;;;;;;;;25.02;32.91;101741.47;107002;1262;61831;-88
2023/06/06 09:46:18;;;;;;;;;;;;;;;25.18;32.40;101737.05;106779;1261;74787;-88
2023/06/06 09:49:03;;;;;;;;;;;;;;;25.34;32.44;101738.17;107041;1261;65666;-88
2023/06/06 09:51:42;;;;;;;;;;;;;;;25.54;32.08;101741.52;106662;1262;71111;-89
2023/06/06 09:54:08;;;;;;;;;;;;;;;25.70;31.57;101737.58;106509;1261;124323;-88
2023/06/06 09:56:44;;;;;;;;;;;;;;;25.68;31.12;101736.20;106503;1263;62945;-89
2023/06/06 10:06:06;;;;;;;;;;;;;;;25.26;30.12;101729.54;107134;1261;124438;-90
2023/06/06 10:12:48;;;;;;;;;;;;;;;25.19;30.83;101723.17;106559;1267;124469;-88
2023/06/06 10:15:25;;;;;;;;;;;;;;;;;;;;;
2023/06/06 10:18:17;;;;;;;;;;;;;;;25.37;30.81;101712.05;106739;1268;124353;-89
2023/06/06 10:21:35;;;;;;;;;;;;;;;25.53;30.50;101711.73;106544;1267;72711;-89
2023/06/06 10:24:20;;;;;;;;;;;;;;;25.66;30.12;101709.64;106147;1267;124546;-89
2023/06/06 10:26:50;;;;;;;;;;;;;;;25.74;30.29;101714.84;106324;1265;60164;-88
2023/06/06 10:29:22;;;;;;;;;;;;;;;25.78;30.35;101714.56;106355;1268;124350;-88
2023/06/06 10:31:54;;;;;;;;;;;;;;;25.88;30.57;101710.57;106480;1267;65795;-88
2023/06/06 10:34:33;;;;;;;;;;;;;;;25.98;30.25;101710.70;106416;1265;72840;-89
2023/06/06 10:40:24;;;;;;;;;;;;;;;26.23;29.74;101707.77;106510;1267;61225;-89
2023/06/06 10:42:52;;;;;;;;;;;;;;;26.30;29.38;101708.83;106238;1267;125133;-89
2023/06/06 10:45:38;;;;;;;;;;;;;;;26.30;29.27;101705.61;106696;1261;66821;-89
2023/06/06 10:48:05;;;;;;;;;;;;;;;26.38;29.28;101700.20;107025;1260;124821;-88
2023/06/06 10:50:32;;;;;;;;;;;;;;;26.49;29.48;101699.73;106909;1261;61282;-88
2023/06/06 10:55:47;;;;;;;;;;;;;;;26.64;29.04;101701.70;106924;1262;74762;-89
2023/06/06 10:58:26;;;;;;;;;;;;;;;26.71;28.92;101703.31;106853;1262;67226;-88
2023/06/06 11:01:19;;;;;;;;;;;;;;;26.65;28.48;101698.09;107151;1263;73721;-90
2023/06/06 11:04:15;;;;;;;;;;;;;;;26.59;28.38;101691.73;107013;1261;61470;-89
2023/06/06 11:06:52;;;;;;;;;;;;;;;26.60;28.58;101686.68;107047;1262;124127;-87
2023/06/06 11:09:38;;;;;;;;;;;;;;;26.59;28.50;101692.64;106781;1260;73308;-89
2023/06/06 11:12:17;;;;;;;;;;;;;;;26.52;28.48;101687.58;106555;1261;124087;-88
2023/06/06 11:17:59;;;;;;;;;;;;;;;26.53;28.56;101683.94;106949;1264;124571;-89
2023/06/06 11:20:27;;;;;;;;;;;;;;;26.65;28.57;101685.48;106937;1262;61054;-88
2023/06/06 11:23:12;;;;;;;;;;;;;;;26.74;28.29;101680.16;106762;1262;124500;-89
2023/06/06 11:25:44;;;;;;;;;;;;;;;26.78;27.89;101672.52;107054;1263;65673;-89
2023/06/06 11:28:30;;;;;;;;;;;;;;;26.79;27.90;101669.61;107106;1262;72570;-89
2023/06/06 11:31:05;;;;;;;;;;;;;;;26.85;27.89;101662.79;107027;1261;124256;-89
2023/06/06 11:33:39;;;;;;;;;;;;;;;26.90;27.81;101664.05;106978;1260;61309;-89
2023/06/06 11:36:16;;;;;;;;;;;;;;;26.89;27.61;101658.15;106981;1261;124730;-88
2023/06/06 11:38:43;;;;;;;;;;;;;;;26.82;27.56;101652.77;106608;1262;65220;-88
2023/06/06 11:41:16;;;;;;;;;;;;;;;26.69;27.54;101657.63;106726;1260;124630;-88
2023/06/06 11:43:50;;;;;;;;;;;;;;;26.53;27.40;101656.24;106648;1262;61240;-88
2023/06/06 11:46:22;;;;;;;;;;;;;;;26.41;27.59;101650.44;106732;1260;61039;-88
2023/06/06 11:49:04;;;;;;;;;;;;;;;26.38;27.84;101651.95;106531;1261;124689;-88
2023/06/06 11:51:39;;;;;;;;;;;;;;;26.35;27.68;101649.52;106787;1260;65816;-88
2023/06/06 11:54:19;;;;;;;;;;;;;;;26.32;27.61;101648.90;106798;1260;124271;-88
2023/06/06 11:56:51;;;;;;;;;;;;;;;26.35;27.86;101652.38;106822;1262;62167;-88
2023/06/06 11:59:36;;;;;;;;;;;;;;;26.43;27.88;101652.91;106966;1260;123423;-88
2023/06/06 12:02:12;;;;;;;;;;;;;;;26.52;27.93;101652.48;107012;1261;74433;-88
2023/06/06 12:04:40;;;;;;;;;;;;;;;26.64;28.21;101652.71;106769;1263;67028;-88
2023/06/06 12:07:07;;;;;;;;;;;;;;;26.80;28.21;101649.22;106812;1262;71193;-88
2023/06/06 12:09:36;;;;;;;;;;;;;;;26.92;27.84;101647.45;107063;1261;60076;-88
2023/06/06 12:12:10;;;;;;;;;;;;;;;26.99;27.48;101643.65;106903;1264;124617;-88
2023/06/06 12:14:36;;;;;;;;;;;;;;;26.96;27.31;101642.09;107003;1260;75379;-88
2023/06/06 12:17:08;;;;;;;;;;;;;;;26.97;27.58;101639.72;106844;1262;60536;-87
2023/06/06 12:19:35;;;;;;;;;;;;;;;27.03;27.35;101638.10;106649;1266;71297;-88
2023/06/06 12:22:12;;;;;;;;;;;;;;;27.05;27.01;101639.48;106671;1262;61262;-88
2023/06/06 12:24:39;;;;;;;;;;;;;;;27.05;27.07;101636.80;106824;1261;61366;-87
2023/06/06 12:27:20;;;;;;;;;;;;;;;27.02;26.75;101636.70;106665;1266;73274;-87
2023/06/06 12:29:55;;;;;;;;;;;;;;;26.94;26.81;101633.85;106683;1260;65513;-88
2023/06/06 12:32:36;;;;;;;;;;;;;;;26.96;26.78;101628.42;106882;1262;72558;-90
2023/06/06 12:35:13;;;;;;;;;;;;;;;27.04;26.82;101627.27;106947;1265;61290;-87
2023/06/06 12:37:40;;;;;;;;;;;;;;;27.13;26.78;101624.66;106954;1260;61014;-88
2023/06/06 12:40:13;;;;;;;;;;;;;;;27.13;26.58;101623.94;106983;1260;74837;-88
2023/06/06 12:42:39;;;;;;;;;;;;;;;27.11;26.63;101622.73;106972;1260;124516;-87
2023/06/06 12:45:11;;;;;;;;;;;;;;;27.10;27.00;101620.08;106759;1264;61363;-89
2023/06/06 12:47:37;;;;;;;;;;;;;;;27.09;26.90;101619.54;106904;1260;124509;-88
2023/06/06 12:50:20;;;;;;;;;;;;;;;27.01;26.85;101616.55;106911;1263;61436;-88
2023/06/06 12:52:50;;;;;;;;;;;;;;;26.93;26.77;101609.95;106910;1261;73262;-88
2023/06/06 12:55:19;;;;;;;;;;;;;;;26.90;26.84;101611.30;107003;1260;124222;-88
2023/06/06 12:57:59;;;;;;;;;;;;;;;26.85;26.83;101612.90;107139;1263;71177;-89
2023/06/06 13:04:06;;;;;;;;;;;;;;;26.77;26.90;101606.27;106760;1265;61016;-88
2023/06/06 13:06:32;;;;;;;;;;;;;;;26.79;26.71;101604.79;106657;1261;124394;-89
2023/06/06 13:08:59;;;;;;;;;;;;;;;26.78;26.78;101604.61;106722;1265;61254;-88
2023/06/06 13:11:34;;;;;;;;;;;;;;;26.79;26.88;101598.12;106568;1260;124557;-89
2023/06/06 13:14:01;;;;;;;;;;;;;;;26.82;26.93;101601.26;106740;1265;60938;-83
2023/06/06 13:16:31;;;;;;;;;;;;;;;26.82;26.76;101602.51;106658;1262;62589;-89
2023/06/06 13:19:04;;;;;;;;;;;;;;;26.70;26.59;101594.41;106450;1260;124350;-89
2023/06/06 13:21:37;;;;;;;;;;;;;;;26.55;26.84;101592.65;106494;1263;65616;-89
2023/06/06 13:24:18;;;;;;;;;;;;;;;26.44;26.84;101601.97;106599;1262;125001;-88
2023/06/06 13:26:45;;;;;;;;;;;;;;;26.33;27.17;101599.55;107048;1265;60591;-83
2023/06/06 13:29:11;;;;;;;;;;;;;;;26.27;27.24;101595.92;107841;1264;125033;-83
2023/06/06 13:31:38;;;;;;;;;;;;;;;26.28;27.36;101597.89;107032;1263;61272;-83
2023/06/06 13:34:05;;;;;;;;;;;;;;;26.37;27.11;101590.62;106787;1266;61396;-84
2023/06/06 13:36:32;;;;;;;;;;;;;;;26.51;27.09;101586.27;106599;1260;124654;-84
2023/06/06 13:39:00;;;;;;;;;;;;;;;26.67;27.21;101589.83;106830;1261;61254;-84